Time;durP1;ratioP1;P1;durP2;ratioP2;P2;SDS_P1;SDS_P2;PMS_P1;PMS_P2;Temp;Humidity;BMP_temperature;BMP_pressure;BME280_temperature;BME280_humidity;BME280_pressure;Samples;Min_cycle;Max_cycle;Signal;HPM_P1;HPM_P2
2023/05/09 00:01:34;;;;;;;11.73;3.45;;;;;;;;;;5046333;28;20092;-71
2023/05/09 00:04:01;;;;;;;9.27;3.03;;;;;;;;;;5052514;28;20471;-72
2023/05/09 00:06:27;;;;;;;9.52;2.92;;;;;;;;;;5054496;28;20055;-70
2023/05/09 00:08:55;;;;;;;6.75;2.88;;;;;;;;;;5054061;28;20025;-70
2023/05/09 00:11:22;;;;;;;5.50;2.80;;;;;;;;;;5052457;28;20528;-70
2023/05/09 00:13:49;;;;;;;10.13;2.83;;;;;;;;;;5052289;28;20063;-70
2023/05/09 00:16:15;;;;;;;6.75;2.67;;;;;;;;;;5052420;28;20017;-69
2023/05/09 00:18:42;;;;;;;13.73;3.00;;;;;;;;;;5052303;28;20043;-70
2023/05/09 00:21:08;;;;;;;9.35;3.20;;;;;;;;;;5052436;28;20025;-70
2023/05/09 00:23:34;;;;;;;11.25;2.80;;;;;;;;;;5052032;28;20572;-71
2023/05/09 00:26:00;;;;;;;9.52;2.80;;;;;;;;;;5052198;28;20108;-70
2023/05/09 00:28:26;;;;;;;9.73;3.33;;;;;;;;;;5052011;28;20159;-71
2023/05/09 00:30:53;;;;;;;5.25;2.67;;;;;;;;;;5052103;28;20024;-70
2023/05/09 00:33:19;;;;;;;6.78;3.05;;;;;;;;;;5051765;28;20025;-70
2023/05/09 00:35:45;;;;;;;7.40;3.13;;;;;;;;;;5052081;28;20104;-70
2023/05/09 00:38:12;;;;;;;6.70;2.88;;;;;;;;;;5052054;28;20102;-70
2023/05/09 00:40:38;;;;;;;12.50;3.00;;;;;;;;;;5051347;28;20029;-70
2023/05/09 00:43:04;;;;;;;6.10;3.00;;;;;;;;;;5051779;28;20021;-70
2023/05/09 00:45:30;;;;;;;13.85;3.00;;;;;;;;;;5052030;28;20079;-70
2023/05/09 00:47:57;;;;;;;8.50;3.00;;;;;;;;;;5052246;28;20035;-70
2023/05/09 00:50:25;;;;;;;11.40;2.95;;;;;;;;;;5051938;28;20123;-71
2023/05/09 00:52:51;;;;;;;7.13;3.28;;;;;;;;;;5051728;28;20035;-72
2023/05/09 00:55:18;;;;;;;8.98;2.97;;;;;;;;;;5051809;28;20021;-70
2023/05/09 00:57:44;;;;;;;13.30;2.97;;;;;;;;;;5052135;28;20067;-70
2023/05/09 01:00:11;;;;;;;7.78;3.03;;;;;;;;;;5052074;28;20074;-70
2023/05/09 01:02:39;;;;;;;7.10;3.58;;;;;;;;;;5051799;28;20028;-71
2023/05/09 01:05:05;;;;;;;6.35;3.17;;;;;;;;;;5051826;28;20036;-70
2023/05/09 01:07:37;;;;;;;9.20;2.90;;;;;;;;;;5051636;28;20039;-70
2023/05/09 01:10:22;;;;;;;6.15;2.85;;;;;;;;;;5051416;28;20097;-70
2023/05/09 01:13:04;;;;;;;5.90;3.22;;;;;;;;;;5051353;28;20118;-71
2023/05/09 01:15:33;;;;;;;7.90;3.60;;;;;;;;;;5051595;28;20028;-71
2023/05/09 01:18:03;;;;;;;13.63;3.50;;;;;;;;;;5051693;28;20466;-70
2023/05/09 01:20:38;;;;;;;9.23;3.15;;;;;;;;;;5051673;28;20520;-70
2023/05/09 01:23:17;;;;;;;9.90;3.00;;;;;;;;;;5051248;28;20031;-71
2023/05/09 01:25:55;;;;;;;6.00;3.58;;;;;;;;;;5051657;28;20159;-71
2023/05/09 01:28:34;;;;;;;8.20;3.63;;;;;;;;;;5050456;28;20111;-70
2023/05/09 01:31:00;;;;;;;5.70;3.03;;;;;;;;;;5051389;28;20021;-70
2023/05/09 01:33:28;;;;;;;13.20;2.90;;;;;;;;;;5051259;28;20448;-70
2023/05/09 01:36:00;;;;;;;10.70;3.50;;;;;;;;;;5051264;28;20021;-70
2023/05/09 01:38:27;;;;;;;14.40;3.10;;;;;;;;;;5051292;28;20017;-70
2023/05/09 01:40:54;;;;;;;14.55;3.08;;;;;;;;;;5051212;28;20529;-70
2023/05/09 01:43:22;;;;;;;7.45;3.35;;;;;;;;;;5051156;28;20017;-70
2023/05/09 01:45:48;;;;;;;10.95;3.40;;;;;;;;;;5051771;28;20025;-70
2023/05/09 01:48:15;;;;;;;6.82;3.08;;;;;;;;;;5051058;28;20104;-71
2023/05/09 01:50:42;;;;;;;18.80;3.63;;;;;;;;;;5051356;28;20029;-71
2023/05/09 01:53:10;;;;;;;6.82;3.40;;;;;;;;;;5054974;28;20060;-71
2023/05/09 01:55:37;;;;;;;12.82;3.42;;;;;;;;;;5055436;28;20082;-70
2023/05/09 01:58:04;;;;;;;6.25;3.40;;;;;;;;;;5054623;28;20447;-70
2023/05/09 02:00:30;;;;;;;11.90;4.00;;;;;;;;;;5053907;28;20501;-70
2023/05/09 02:02:57;;;;;;;10.80;3.70;;;;;;;;;;5053674;28;20054;-70
2023/05/09 02:05:26;;;;;;;8.88;4.05;;;;;;;;;;5053763;28;20025;-71
2023/05/09 02:07:53;;;;;;;8.85;3.67;;;;;;;;;;5053618;28;20121;-70
2023/05/09 02:10:20;;;;;;;10.18;3.90;;;;;;;;;;5053584;28;20111;-71
2023/05/09 02:12:46;;;;;;;15.80;4.20;;;;;;;;;;5053505;28;20048;-69
2023/05/09 02:15:12;;;;;;;9.65;4.20;;;;;;;;;;5053667;28;20474;-70
2023/05/09 02:17:38;;;;;;;10.48;3.80;;;;;;;;;;5053600;28;20040;-71
2023/05/09 02:20:04;;;;;;;12.68;4.68;;;;;;;;;;5053426;28;20037;-70
2023/05/09 02:22:30;;;;;;;6.78;3.88;;;;;;;;;;5053269;28;20039;-71
2023/05/09 02:24:56;;;;;;;8.90;4.07;;;;;;;;;;5053552;28;20025;-70
2023/05/09 02:27:22;;;;;;;10.60;4.22;;;;;;;;;;5054014;28;20017;-70
2023/05/09 02:29:51;;;;;;;15.95;4.35;;;;;;;;;;5053411;28;20021;-70
2023/05/09 02:32:21;;;;;;;7.38;3.97;;;;;;;;;;5053346;28;20032;-71
2023/05/09 02:34:48;;;;;;;22.77;5.00;;;;;;;;;;5053194;28;20025;-70
2023/05/09 02:37:15;;;;;;;10.30;4.28;;;;;;;;;;5053310;28;20095;-71
2023/05/09 02:39:41;;;;;;;14.07;4.10;;;;;;;;;;5053011;28;20391;-71
2023/05/09 02:42:11;;;;;;;13.32;4.40;;;;;;;;;;5052917;28;20440;-70
2023/05/09 02:44:37;;;;;;;15.45;4.55;;;;;;;;;;5053721;28;20048;-69
2023/05/09 02:47:04;;;;;;;9.48;4.00;;;;;;;;;;5053727;28;20033;-70
2023/05/09 02:49:30;;;;;;;12.65;4.35;;;;;;;;;;5053258;28;20463;-70
2023/05/09 02:51:56;;;;;;;10.30;4.53;;;;;;;;;;5052595;28;20028;-70
2023/05/09 02:54:22;;;;;;;9.88;4.03;;;;;;;;;;5052968;28;20029;-69
2023/05/09 02:56:48;;;;;;;10.52;4.13;;;;;;;;;;5051628;28;20092;-70
2023/05/09 02:59:14;;;;;;;8.25;4.47;;;;;;;;;;5051822;28;20025;-70
2023/05/09 03:01:41;;;;;;;8.73;4.10;;;;;;;;;;5052574;28;20036;-70
2023/05/09 03:04:07;;;;;;;9.60;4.57;;;;;;;;;;5051929;28;20025;-70
2023/05/09 03:06:33;;;;;;;8.85;4.47;;;;;;;;;;5052745;28;20104;-70
2023/05/09 03:08:59;;;;;;;12.00;4.20;;;;;;;;;;5052340;28;20032;-69
2023/05/09 03:11:25;;;;;;;7.88;4.53;;;;;;;;;;5053392;28;20053;-69
2023/05/09 03:13:51;;;;;;;14.27;4.78;;;;;;;;;;5053465;28;20051;-70
2023/05/09 03:16:17;;;;;;;15.70;4.88;;;;;;;;;;5053501;28;20021;-71
2023/05/09 03:18:43;;;;;;;8.65;4.60;;;;;;;;;;5053399;28;21037;-69
2023/05/09 03:21:09;;;;;;;8.82;5.07;;;;;;;;;;5053031;28;20446;-70
2023/05/09 03:23:35;;;;;;;14.23;4.57;;;;;;;;;;5052351;28;20037;-70
2023/05/09 03:26:01;;;;;;;16.80;5.82;;;;;;;;;;5052492;28;20025;-69
2023/05/09 03:28:27;;;;;;;13.35;4.22;;;;;;;;;;5052128;28;20039;-71
2023/05/09 03:30:53;;;;;;;9.32;4.63;;;;;;;;;;5052367;28;20082;-72
2023/05/09 03:33:20;;;;;;;12.05;4.85;;;;;;;;;;5052176;28;20098;-69
2023/05/09 03:35:46;;;;;;;13.48;4.93;;;;;;;;;;5052396;28;20079;-69
2023/05/09 03:38:12;;;;;;;8.52;4.50;;;;;;;;;;5052325;28;20382;-69
2023/05/09 03:40:38;;;;;;;15.18;5.00;;;;;;;;;;5052195;28;20029;-69
2023/05/09 03:43:04;;;;;;;13.13;4.97;;;;;;;;;;5052835;28;20055;-69
2023/05/09 03:45:30;;;;;;;10.00;4.32;;;;;;;;;;5052810;28;20108;-69
2023/05/09 03:47:55;;;;;;;13.55;5.40;;;;;;;;;;5051274;28;20025;-69
2023/05/09 03:50:21;;;;;;;13.60;5.38;;;;;;;;;;5052824;28;20029;-69
2023/05/09 03:52:49;;;;;;;11.27;4.72;;;;;;;;;;5052368;28;20079;-69
2023/05/09 03:55:15;;;;;;;10.85;4.75;;;;;;;;;;5052646;28;20024;-69
2023/05/09 03:57:41;;;;;;;10.70;5.18;;;;;;;;;;5052484;28;20024;-69
2023/05/09 04:00:09;;;;;;;9.98;4.95;;;;;;;;;;5051542;28;20506;-70
2023/05/09 04:02:35;;;;;;;10.25;5.10;;;;;;;;;;5051804;28;20032;-69
2023/05/09 04:05:01;;;;;;;11.93;5.13;;;;;;;;;;5051714;28;20398;-70
2023/05/09 04:07:27;;;;;;;12.52;5.22;;;;;;;;;;5051319;28;20032;-69
2023/05/09 04:09:54;;;;;;;13.35;5.45;;;;;;;;;;5051478;28;20094;-70
2023/05/09 04:12:21;;;;;;;12.05;5.22;;;;;;;;;;5051931;28;20018;-70
2023/05/09 04:14:47;;;;;;;11.55;5.53;;;;;;;;;;5050387;28;20028;-69
2023/05/09 04:17:13;;;;;;;12.18;5.65;;;;;;;;;;5051368;28;20396;-70
2023/05/09 04:19:39;;;;;;;13.63;6.03;;;;;;;;;;5051278;28;20032;-69
2023/05/09 04:22:05;;;;;;;13.38;5.40;;;;;;;;;;5051006;28;20021;-71
2023/05/09 04:24:31;;;;;;;11.35;5.20;;;;;;;;;;5051330;28;20029;-76
2023/05/09 04:26:57;;;;;;;14.05;6.03;;;;;;;;;;5051051;28;20336;-69
2023/05/09 04:29:23;;;;;;;18.13;4.97;;;;;;;;;;5050754;28;20024;-70
2023/05/09 04:31:49;;;;;;;11.13;5.88;;;;;;;;;;5051025;28;20021;-71
2023/05/09 04:34:15;;;;;;;15.95;5.38;;;;;;;;;;5051080;28;20102;-69
2023/05/09 04:36:41;;;;;;;13.23;5.70;;;;;;;;;;5051427;28;20013;-70
2023/05/09 04:39:07;;;;;;;13.52;5.43;;;;;;;;;;5048521;28;20094;-72
2023/05/09 04:41:33;;;;;;;19.08;5.38;;;;;;;;;;5051257;28;20033;-72
2023/05/09 04:43:59;;;;;;;11.27;5.30;;;;;;;;;;5052435;28;20040;-73
2023/05/09 04:46:25;;;;;;;14.07;6.07;;;;;;;;;;5055751;28;20094;-72
2023/05/09 04:48:51;;;;;;;12.95;5.45;;;;;;;;;;5054668;28;20021;-71
2023/05/09 04:51:17;;;;;;;12.38;5.43;;;;;;;;;;5050499;28;20021;-72
2023/05/09 04:53:44;;;;;;;9.38;5.43;;;;;;;;;;5052080;28;20105;-73
2023/05/09 04:56:10;;;;;;;9.18;5.20;;;;;;;;;;5051410;28;20021;-74
2023/05/09 04:58:39;;;;;;;12.40;5.72;;;;;;;;;;5049563;28;20375;-71
2023/05/09 05:01:05;;;;;;;11.40;5.78;;;;;;;;;;5052955;28;20025;-71
2023/05/09 05:03:31;;;;;;;13.18;5.60;;;;;;;;;;5052873;28;20029;-71
2023/05/09 05:05:58;;;;;;;10.65;5.60;;;;;;;;;;5053122;28;20075;-72
2023/05/09 05:08:23;;;;;;;9.52;5.15;;;;;;;;;;5053320;28;20029;-70
2023/05/09 05:10:50;;;;;;;13.65;5.32;;;;;;;;;;5054840;28;20032;-71
2023/05/09 05:13:16;;;;;;;17.60;5.20;;;;;;;;;;5054801;28;20021;-70
2023/05/09 05:15:42;;;;;;;9.73;5.47;;;;;;;;;;5052562;28;20079;-70
2023/05/09 05:18:08;;;;;;;11.15;5.40;;;;;;;;;;5051888;28;20025;-71
2023/05/09 05:20:34;;;;;;;15.82;6.00;;;;;;;;;;5045493;28;20032;-72
2023/05/09 05:23:00;;;;;;;14.82;5.45;;;;;;;;;;5051205;28;20035;-70
2023/05/09 05:25:26;;;;;;;21.40;5.93;;;;;;;;;;5051391;28;20025;-71
2023/05/09 05:27:52;;;;;;;14.60;5.95;;;;;;;;;;5055540;28;20393;-72
2023/05/09 05:30:19;;;;;;;13.70;6.18;;;;;;;;;;5055825;28;20025;-74
2023/05/09 05:32:45;;;;;;;14.60;6.40;;;;;;;;;;5055060;28;20502;-72
2023/05/09 05:35:11;;;;;;;11.35;5.88;;;;;;;;;;5055713;28;20036;-73
2023/05/09 05:37:38;;;;;;;9.40;5.95;;;;;;;;;;5055614;28;20026;-72
2023/05/09 05:40:04;;;;;;;13.68;6.00;;;;;;;;;;5054835;28;20036;-72
2023/05/09 05:42:31;;;;;;;10.40;5.57;;;;;;;;;;5054466;28;20091;-72
2023/05/09 05:45:00;;;;;;;15.07;6.20;;;;;;;;;;5055383;28;20405;-73
2023/05/09 05:47:26;;;;;;;13.00;5.85;;;;;;;;;;5055174;28;20082;-74
2023/05/09 05:49:52;;;;;;;17.95;6.65;;;;;;;;;;5054841;28;20045;-73
2023/05/09 05:52:17;;;;;;;15.98;6.80;;;;;;;;;;5054438;28;20029;-72
2023/05/09 05:54:43;;;;;;;20.75;6.07;;;;;;;;;;5054913;28;20029;-70
2023/05/09 05:57:09;;;;;;;12.57;5.97;;;;;;;;;;5055080;28;20025;-72
2023/05/09 05:59:35;;;;;;;11.25;6.00;;;;;;;;;;5054993;28;20032;-71
2023/05/09 06:02:01;;;;;;;11.23;5.97;;;;;;;;;;5054771;28;20130;-71
2023/05/09 06:04:27;;;;;;;14.88;5.80;;;;;;;;;;5055672;28;20483;-72
2023/05/09 06:06:53;;;;;;;19.77;6.95;;;;;;;;;;5054535;28;20491;-73
2023/05/09 06:09:19;;;;;;;13.30;6.60;;;;;;;;;;5054358;28;20055;-72
2023/05/09 06:11:45;;;;;;;15.43;6.15;;;;;;;;;;5054272;28;20017;-73
2023/05/09 06:14:11;;;;;;;17.30;6.03;;;;;;;;;;5054583;28;20479;-72
2023/05/09 06:16:37;;;;;;;13.32;6.13;;;;;;;;;;5054948;28;20083;-71
2023/05/09 06:19:03;;;;;;;22.30;5.95;;;;;;;;;;5054217;28;20521;-70
2023/05/09 06:21:30;;;;;;;11.88;6.22;;;;;;;;;;5054596;28;20035;-69
2023/05/09 06:23:55;;;;;;;13.85;5.80;;;;;;;;;;5054561;28;20105;-71
2023/05/09 06:26:21;;;;;;;18.45;6.18;;;;;;;;;;5054841;28;20068;-70
2023/05/09 06:28:47;;;;;;;12.85;6.20;;;;;;;;;;5054149;28;20074;-71
2023/05/09 06:31:13;;;;;;;11.13;6.00;;;;;;;;;;5054250;28;20032;-72
2023/05/09 06:33:39;;;;;;;19.25;6.00;;;;;;;;;;5054322;28;20032;-70
2023/05/09 06:36:05;;;;;;;13.77;6.35;;;;;;;;;;5054599;28;20028;-69
2023/05/09 06:38:33;;;;;;;16.92;6.53;;;;;;;;;;5052775;28;20025;-69
2023/05/09 06:40:59;;;;;;;16.83;7.13;;;;;;;;;;5054212;28;20494;-70
2023/05/09 06:43:26;;;;;;;15.82;6.15;;;;;;;;;;5053917;28;20094;-69
2023/05/09 06:45:52;;;;;;;18.85;6.85;;;;;;;;;;5054186;28;20056;-70
2023/05/09 06:48:18;;;;;;;15.35;6.20;;;;;;;;;;5054298;28;20071;-69
2023/05/09 06:50:44;;;;;;;20.35;6.53;;;;;;;;;;5054134;28;20025;-69
2023/05/09 06:53:10;;;;;;;16.75;6.32;;;;;;;;;;5053857;28;20383;-69
2023/05/09 06:55:36;;;;;;;16.88;6.32;;;;;;;;;;5053956;28;20017;-70
2023/05/09 06:58:02;;;;;;;16.60;6.15;;;;;;;;;;5053717;28;20013;-69
2023/05/09 07:00:28;;;;;;;12.00;5.93;;;;;;;;;;5052396;28;20029;-69
2023/05/09 07:02:54;;;;;;;14.25;6.22;;;;;;;;;;5072368;28;20028;-69
2023/05/09 07:05:20;;;;;;;14.57;6.43;;;;;;;;;;5072012;28;20024;-69
2023/05/09 07:07:46;;;;;;;12.57;5.65;;;;;;;;;;5052425;28;20076;-71
2023/05/09 07:10:12;;;;;;;17.98;6.78;;;;;;;;;;5052563;28;20544;-70
2023/05/09 07:12:38;;;;;;;16.23;6.30;;;;;;;;;;5052641;28;20029;-70
2023/05/09 07:15:05;;;;;;;11.52;5.90;;;;;;;;;;5052973;28;20052;-69
2023/05/09 07:17:31;;;;;;;20.15;6.25;;;;;;;;;;5052740;28;20476;-69
2023/05/09 07:19:57;;;;;;;12.35;6.57;;;;;;;;;;5052760;28;20033;-71
2023/05/09 07:22:23;;;;;;;12.88;5.65;;;;;;;;;;5052000;28;20051;-70
2023/05/09 07:24:49;;;;;;;14.82;6.65;;;;;;;;;;5052534;28;20024;-70
2023/05/09 07:27:15;;;;;;;16.65;6.22;;;;;;;;;;5052228;28;20466;-70
2023/05/09 07:29:41;;;;;;;16.10;6.55;;;;;;;;;;5051622;28;20044;-69
2023/05/09 07:32:07;;;;;;;14.40;6.63;;;;;;;;;;5051955;28;20382;-70
2023/05/09 07:34:33;;;;;;;12.25;6.10;;;;;;;;;;5052255;28;20033;-70
2023/05/09 07:36:59;;;;;;;12.43;5.97;;;;;;;;;;5052292;28;20058;-70
2023/05/09 07:39:25;;;;;;;16.23;5.82;;;;;;;;;;5052455;28;20441;-70
2023/05/09 07:41:51;;;;;;;13.38;6.30;;;;;;;;;;5052086;28;20033;-70
2023/05/09 07:44:17;;;;;;;14.02;5.78;;;;;;;;;;5052268;28;20478;-70
2023/05/09 07:46:43;;;;;;;20.08;6.10;;;;;;;;;;5052160;28;20044;-71
2023/05/09 07:49:09;;;;;;;17.25;6.53;;;;;;;;;;5051311;28;20033;-70
2023/05/09 07:51:35;;;;;;;10.38;5.68;;;;;;;;;;5051886;28;20029;-69
2023/05/09 07:54:01;;;;;;;13.35;5.55;;;;;;;;;;5052121;28;20017;-71
2023/05/09 07:56:27;;;;;;;13.35;6.00;;;;;;;;;;5052992;28;20021;-73
2023/05/09 07:58:53;;;;;;;10.90;5.82;;;;;;;;;;5053073;28;20115;-74
2023/05/09 08:01:19;;;;;;;9.05;5.30;;;;;;;;;;5053338;28;20187;-72
2023/05/09 08:03:45;;;;;;;9.30;5.32;;;;;;;;;;5053324;28;20021;-72
2023/05/09 08:06:11;;;;;;;20.35;5.40;;;;;;;;;;5053395;28;20501;-75
2023/05/09 08:08:37;;;;;;;15.43;5.00;;;;;;;;;;5052583;28;20051;-75
2023/05/09 08:11:04;;;;;;;14.98;4.78;;;;;;;;;;5052877;28;20091;-76
2023/05/09 08:13:30;;;;;;;17.52;4.82;;;;;;;;;;5055245;28;20074;-72
2023/05/09 08:15:56;;;;;;;12.65;5.43;;;;;;;;;;5053056;28;20025;-71
2023/05/09 08:18:22;;;;;;;12.63;5.45;;;;;;;;;;5052603;28;20096;-71
2023/05/09 08:20:48;;;;;;;11.88;5.70;;;;;;;;;;5053654;28;20426;-71
2023/05/09 08:23:14;;;;;;;15.70;4.82;;;;;;;;;;5053018;28;20104;-70
2023/05/09 08:25:41;;;;;;;20.13;6.15;;;;;;;;;;5052244;28;20453;-71
2023/05/09 08:28:07;;;;;;;15.73;5.95;;;;;;;;;;5052147;28;20479;-71
2023/05/09 08:30:33;;;;;;;19.30;5.10;;;;;;;;;;5051993;28;20037;-71
2023/05/09 08:32:59;;;;;;;14.10;4.45;;;;;;;;;;5051910;28;20071;-71
2023/05/09 08:35:25;;;;;;;20.35;6.25;;;;;;;;;;5052762;28;20371;-70
2023/05/09 08:37:51;;;;;;;10.20;5.35;;;;;;;;;;5052380;28;20028;-71
2023/05/09 08:40:17;;;;;;;12.00;5.00;;;;;;;;;;5052215;28;20100;-72
2023/05/09 08:42:48;;;;;;;10.93;5.03;;;;;;;;;;5052703;28;20032;-70
2023/05/09 08:45:14;;;;;;;11.73;5.40;;;;;;;;;;5052251;28;20056;-70
2023/05/09 08:47:41;;;;;;;9.25;4.70;;;;;;;;;;5051919;28;20415;-72
2023/05/09 08:50:07;;;;;;;15.07;4.40;;;;;;;;;;5052288;28;20032;-72
2023/05/09 08:52:33;;;;;;;17.73;5.45;;;;;;;;;;5053064;28;20039;-69
2023/05/09 08:55:06;;;;;;;11.55;4.43;;;;;;;;;;5050545;28;20017;-70
2023/05/09 08:57:35;;;;;;;11.02;5.47;;;;;;;;;;5051814;28;20021;-70
2023/05/09 09:00:04;;;;;;;17.58;5.00;;;;;;;;;;5070242;28;20032;-71
2023/05/09 09:02:30;;;;;;;13.07;4.70;;;;;;;;;;5070736;28;20082;-71
2023/05/09 09:04:56;;;;;;;11.48;4.95;;;;;;;;;;5072454;28;20020;-70
2023/05/09 09:07:23;;;;;;;10.85;4.57;;;;;;;;;;5072385;28;20032;-70
2023/05/09 09:09:49;;;;;;;14.57;4.20;;;;;;;;;;5072317;28;20107;-72
2023/05/09 09:12:16;;;;;;;12.18;4.40;;;;;;;;;;5072253;28;20542;-75
2023/05/09 09:14:45;;;;;;;15.02;4.20;;;;;;;;;;5070747;28;20104;-73
2023/05/09 09:17:13;;;;;;;10.20;4.20;;;;;;;;;;5072120;28;20024;-73
2023/05/09 09:19:40;;;;;;;28.27;6.45;;;;;;;;;;5074422;28;20033;-72
2023/05/09 09:22:07;;;;;;;13.30;4.20;;;;;;;;;;5071932;28;20033;-72
2023/05/09 09:24:33;;;;;;;13.32;3.92;;;;;;;;;;5072196;28;20107;-69
2023/05/09 09:27:04;;;;;;;14.40;3.97;;;;;;;;;;5071813;28;20040;-70
2023/05/09 09:29:30;;;;;;;8.27;3.72;;;;;;;;;;5071447;28;20130;-71
2023/05/09 09:31:56;;;;;;;18.63;5.53;;;;;;;;;;5071755;28;20017;-70
2023/05/09 09:34:23;;;;;;;8.52;4.43;;;;;;;;;;5071728;28;20016;-71
2023/05/09 09:36:49;;;;;;;14.23;4.25;;;;;;;;;;5071691;28;20371;-72
2023/05/09 09:39:15;;;;;;;11.73;4.05;;;;;;;;;;5071544;28;20024;-73
2023/05/09 09:41:43;;;;;;;11.10;4.40;;;;;;;;;;5071638;28;20054;-74
2023/05/09 09:44:16;;;;;;;14.30;4.20;;;;;;;;;;5071720;28;20429;-70
2023/05/09 09:46:47;;;;;;;12.98;3.85;;;;;;;;;;5071667;28;20421;-69
2023/05/09 09:49:13;;;;;;;19.00;4.22;;;;;;;;;;5071510;28;20048;-71
2023/05/09 09:51:40;;;;;;;12.63;4.35;;;;;;;;;;5071284;28;20031;-71
2023/05/09 09:54:06;;;;;;;13.50;3.58;;;;;;;;;;5071246;28;20454;-70
2023/05/09 09:56:43;;;;;;;10.57;3.47;;;;;;;;;;5071472;28;20029;-70
2023/05/09 09:59:10;;;;;;;12.38;4.22;;;;;;;;;;5071120;28;20051;-70
2023/05/09 10:01:53;;;;;;;13.15;4.28;;;;;;;;;;5071180;28;20052;-70
2023/05/09 10:04:19;;;;;;;8.05;3.60;;;;;;;;;;5071246;28;20025;-70
2023/05/09 10:06:55;;;;;;;10.40;3.97;;;;;;;;;;5071424;28;20052;-70
2023/05/09 10:09:22;;;;;;;10.07;3.53;;;;;;;;;;5070987;28;20044;-70
2023/05/09 10:11:50;;;;;;;11.95;4.00;;;;;;;;;;5072284;28;20025;-70
2023/05/09 10:14:18;;;;;;;10.30;3.65;;;;;;;;;;5075932;28;20042;-70
2023/05/09 10:16:45;;;;;;;11.80;3.60;;;;;;;;;;5074522;28;20028;-72
2023/05/09 10:19:12;;;;;;;13.80;3.10;;;;;;;;;;5077386;28;20021;-73
2023/05/09 10:21:39;;;;;;;12.38;3.95;;;;;;;;;;5078246;28;20021;-76
2023/05/09 10:24:06;;;;;;;13.15;3.55;;;;;;;;;;5078839;28;20542;-74
2023/05/09 10:26:36;;;;;;;8.93;3.20;;;;;;;;;;5078000;28;20025;-70
2023/05/09 10:29:04;;;;;;;15.90;4.05;;;;;;;;;;5075652;28;20105;-70
2023/05/09 10:31:32;;;;;;;12.50;3.95;;;;;;;;;;5074754;28;20066;-70
2023/05/09 10:34:00;;;;;;;10.60;3.35;;;;;;;;;;5074302;28;20055;-70
2023/05/09 10:36:27;;;;;;;17.38;3.42;;;;;;;;;;5074735;28;20017;-70
2023/05/09 10:38:54;;;;;;;12.30;3.58;;;;;;;;;;5075050;28;20039;-69
2023/05/09 10:41:20;;;;;;;6.22;3.50;;;;;;;;;;5074724;28;20024;-70
2023/05/09 10:43:47;;;;;;;13.52;3.85;;;;;;;;;;5074676;28;20036;-71
2023/05/09 10:46:13;;;;;;;6.35;3.22;;;;;;;;;;5075603;28;20031;-71
2023/05/09 10:48:40;;;;;;;10.68;3.20;;;;;;;;;;5074729;28;20047;-70
2023/05/09 10:51:07;;;;;;;8.30;3.30;;;;;;;;;;5074320;28;20112;-71
2023/05/09 10:53:55;;;;;;;6.72;2.95;;;;;;;;;;5074197;28;20044;-71
2023/05/09 10:56:31;;;;;;;5.60;2.97;;;;;;;;;;5074116;28;20048;-71
2023/05/09 10:58:57;;;;;;;11.32;3.20;;;;;;;;;;5074267;28;20024;-71
2023/05/09 11:01:31;;;;;;;8.30;3.13;;;;;;;;;;5074436;28;20382;-70
2023/05/09 11:03:58;;;;;;;11.95;3.38;;;;;;;;;;5073894;28;20032;-71
2023/05/09 11:06:45;;;;;;;6.45;3.35;;;;;;;;;;5073808;28;20556;-71
2023/05/09 11:09:31;;;;;;;11.13;3.13;;;;;;;;;;5073512;28;20513;-71
2023/05/09 11:12:07;;;;;;;8.25;2.90;;;;;;;;;;5073365;28;20433;-71
2023/05/09 11:14:36;;;;;;;10.77;2.97;;;;;;;;;;5073993;28;20021;-70
2023/05/09 11:17:23;;;;;;;8.55;3.17;;;;;;;;;;5073867;28;20024;-70
2023/05/09 11:19:49;;;;;;;14.70;3.40;;;;;;;;;;5066400;28;20119;-70
2023/05/09 11:22:15;;;;;;;19.27;3.17;;;;;;;;;;5073404;28;20036;-70
2023/05/09 11:24:45;;;;;;;9.07;3.05;;;;;;;;;;5072919;28;20029;-71
2023/05/09 11:27:20;;;;;;;14.23;2.97;;;;;;;;;;5073363;28;20048;-72
2023/05/09 11:29:51;;;;;;;7.57;3.25;;;;;;;;;;5073163;28;20085;-70
2023/05/09 11:32:17;;;;;;;31.77;4.00;;;;;;;;;;5073165;28;20028;-70
2023/05/09 11:34:44;;;;;;;8.57;3.80;;;;;;;;;;5073937;28;20031;-70
2023/05/09 11:37:10;;;;;;;12.07;4.15;;;;;;;;;;5073877;28;20070;-71
2023/05/09 11:39:55;;;;;;;10.30;2.75;;;;;;;;;;5073474;28;20036;-71
2023/05/09 11:42:22;;;;;;;6.43;3.27;;;;;;;;;;5072980;28;20107;-71
2023/05/09 11:44:48;;;;;;;9.27;2.90;;;;;;;;;;5073084;28;20262;-71
2023/05/09 11:47:14;;;;;;;17.15;3.78;;;;;;;;;;5073268;28;20029;-72
2023/05/09 11:49:43;;;;;;;7.38;3.05;;;;;;;;;;5072982;28;20105;-72
2023/05/09 11:52:09;;;;;;;11.30;3.83;;;;;;;;;;5073381;28;20021;-72
2023/05/09 11:54:37;;;;;;;14.00;3.00;;;;;;;;;;5073121;28;20104;-71
2023/05/09 11:57:04;;;;;;;12.93;3.00;;;;;;;;;;5072919;28;20081;-73
2023/05/09 11:59:30;;;;;;;13.90;3.67;;;;;;;;;;5073019;28;20667;-71
2023/05/09 12:01:56;;;;;;;7.82;3.03;;;;;;;;;;5074705;28;20056;-71
2023/05/09 12:04:22;;;;;;;9.00;3.30;;;;;;;;;;5075113;28;20127;-72
2023/05/09 12:06:48;;;;;;;12.63;3.42;;;;;;;;;;5076531;28;20438;-69
2023/05/09 12:09:15;;;;;;;9.38;3.00;;;;;;;;;;5076519;28;20039;-70
2023/05/09 12:11:47;;;;;;;13.35;3.25;;;;;;;;;;5077524;28;20021;-69
2023/05/09 12:14:25;;;;;;;11.00;3.13;;;;;;;;;;5078277;28;20022;-70
2023/05/09 12:16:51;;;;;;;7.72;3.10;;;;;;;;;;5072871;28;20028;-74
2023/05/09 12:19:18;;;;;;;11.05;3.17;;;;;;;;;;5072456;28;20027;-72
2023/05/09 12:21:44;;;;;;;10.57;3.05;;;;;;;;;;5072270;28;20498;-71
2023/05/09 12:24:10;;;;;;;5.18;2.83;;;;;;;;;;5072171;28;20091;-71
2023/05/09 12:26:36;;;;;;;10.65;3.83;;;;;;;;;;5072301;28;20052;-71
2023/05/09 12:29:02;;;;;;;9.23;3.80;;;;;;;;;;5072294;28;20087;-70
2023/05/09 12:31:28;;;;;;;11.68;3.40;;;;;;;;;;5071781;28;20478;-71
2023/05/09 12:33:54;;;;;;;14.75;3.28;;;;;;;;;;5071797;28;20052;-70
2023/05/09 12:36:20;;;;;;;15.27;3.92;;;;;;;;;;5071764;28;20029;-69
2023/05/09 12:38:56;;;;;;;22.80;6.20;;;;;;;;;;5072258;28;20019;-75
2023/05/09 12:41:23;;;;;;;19.77;7.38;;;;;;;;;;5072600;28;20081;-73
2023/05/09 12:43:50;;;;;;;26.45;11.07;;;;;;;;;;5072269;28;20020;-72
2023/05/09 12:46:19;;;;;;;41.00;18.70;;;;;;;;;;5072328;28;20021;-73
2023/05/09 12:48:48;;;;;;;44.65;21.17;;;;;;;;;;5053874;28;20020;-70
2023/05/09 12:51:21;;;;;;;40.78;18.48;;;;;;;;;;5051887;28;20398;-72
2023/05/09 12:53:47;;;;;;;43.03;15.90;;;;;;;;;;5055241;28;20021;-71
2023/05/09 12:56:14;;;;;;;36.75;12.80;;;;;;;;;;5051519;28;20210;-71
2023/05/09 12:58:47;;;;;;;18.88;8.20;;;;;;;;;;5053320;28;20103;-70
2023/05/09 13:01:13;;;;;;;22.48;8.55;;;;;;;;;;5051779;28;20020;-69
2023/05/09 13:03:39;;;;;;;18.40;8.35;;;;;;;;;;5052093;28;20029;-71
2023/05/09 13:06:05;;;;;;;19.10;7.60;;;;;;;;;;5051592;28;20039;-71
2023/05/09 13:08:32;;;;;;;20.27;7.35;;;;;;;;;;5051656;28;20043;-72
2023/05/09 13:10:59;;;;;;;16.55;6.60;;;;;;;;;;5051271;28;20489;-71
2023/05/09 13:13:26;;;;;;;16.65;5.35;;;;;;;;;;5051229;28;20471;-72
2023/05/09 13:15:52;;;;;;;14.77;4.68;;;;;;;;;;5052298;28;20393;-71
2023/05/09 13:18:19;;;;;;;17.73;4.57;;;;;;;;;;5051955;28;20471;-72
2023/05/09 13:20:45;;;;;;;12.40;3.70;;;;;;;;;;5051754;28;20116;-71
2023/05/09 13:23:11;;;;;;;8.85;4.00;;;;;;;;;;5051206;28;20040;-72
2023/05/09 13:25:37;;;;;;;10.77;3.97;;;;;;;;;;5051478;28;20029;-72
2023/05/09 13:28:03;;;;;;;14.98;3.80;;;;;;;;;;5051965;28;20121;-72
2023/05/09 13:30:30;;;;;;;9.88;3.50;;;;;;;;;;5051198;28;20040;-71
2023/05/09 13:32:56;;;;;;;14.75;3.90;;;;;;;;;;5051414;28;20068;-73
2023/05/09 13:35:23;;;;;;;11.40;3.88;;;;;;;;;;5051609;28;20036;-71
2023/05/09 13:37:49;;;;;;;12.32;3.13;;;;;;;;;;5051258;28;20150;-72
2023/05/09 13:40:15;;;;;;;7.18;3.00;;;;;;;;;;5051654;28;20067;-72
2023/05/09 13:42:41;;;;;;;9.68;2.78;;;;;;;;;;5057002;28;20083;-72
2023/05/09 13:45:08;;;;;;;5.03;2.97;;;;;;;;;;5051640;28;20025;-72
2023/05/09 13:47:35;;;;;;;8.88;2.88;;;;;;;;;;5053019;28;20033;-72
2023/05/09 13:50:02;;;;;;;10.10;3.35;;;;;;;;;;5055453;28;20037;-72
2023/05/09 13:52:27;;;;;;;10.63;2.78;;;;;;;;;;5055068;28;20021;-71
2023/05/09 13:54:53;;;;;;;12.43;3.05;;;;;;;;;;5054677;28;20390;-72
2023/05/09 13:57:19;;;;;;;10.27;3.00;;;;;;;;;;5055032;28;20083;-70
2023/05/09 13:59:45;;;;;;;7.18;3.10;;;;;;;;;;5054906;28;20025;-76
2023/05/09 14:02:11;;;;;;;6.95;3.05;;;;;;;;;;5054545;28;20053;-70
2023/05/09 14:04:38;;;;;;;13.05;2.97;;;;;;;;;;5055155;28;20029;-71
2023/05/09 14:07:04;;;;;;;15.80;3.53;;;;;;;;;;5054870;28;20029;-72
2023/05/09 14:09:30;;;;;;;10.40;3.15;;;;;;;;;;5054673;28;20029;-72
2023/05/09 14:11:56;;;;;;;7.90;2.80;;;;;;;;;;5054986;28;20493;-71
2023/05/09 14:14:23;;;;;;;10.93;3.13;;;;;;;;;;5052658;28;20086;-73
2023/05/09 14:16:49;;;;;;;6.35;2.53;;;;;;;;;;5055499;28;20056;-72
2023/05/09 14:19:15;;;;;;;5.85;2.83;;;;;;;;;;5069566;28;20035;-69
2023/05/09 14:21:42;;;;;;;13.23;3.35;;;;;;;;;;5075462;28;20028;-72
2023/05/09 14:24:08;;;;;;;18.20;3.78;;;;;;;;;;5074571;28;20030;-71
2023/05/09 14:26:34;;;;;;;8.05;3.60;;;;;;;;;;5074838;28;20035;-70
2023/05/09 14:29:01;;;;;;;8.57;3.13;;;;;;;;;;5074690;28;20089;-72
2023/05/09 14:31:27;;;;;;;11.50;2.88;;;;;;;;;;5075028;28;20032;-70
2023/05/09 14:33:53;;;;;;;10.07;2.90;;;;;;;;;;5075038;28;20052;-77